< < Back
Terminal Aerodrome Forecast


Current Version              Previous Versions:   1  2  3  4  5  6  7  8  9  

Terminal Aerodrome Forecast

440
FTUS42 KTAE 031731
TAFDHN
TAF
KDHN 031731Z 0318/0418 12005KT P6SM SCT040
     FM032100 26005KT P6SM BKN040
     FM040000 22003KT P6SM SCT050
     FM041400 28004KT P6SM FEW040=

Latest METAR

649
SAUS70 KWBC 040900 RRG
MTRDHN
METAR KDHN 040853Z 24003KT 8SM CLR 24/23 A2997 RMK AO2 SLP141 T02440228
53002


USA.gov is the U.S. government's official web portal to all federal, state and local government web resources and services.